Time;durP1;ratioP1;P1;durP2;ratioP2;P2;SDS_P1;SDS_P2;PMS_P1;PMS_P2;Temp;Humidity;BMP_temperature;BMP_pressure;BME280_temperature;BME280_humidity;BME280_pressure;Samples;Min_cycle;Max_cycle;Signal;HPM_P1;HPM_P2
2022/07/23 00:01:41;;;;;;;4.47;2.70;;;15.00;99.90;;;;;;6114279;23;20597;-84
2022/07/23 00:04:22;;;;;;;8.20;3.38;;;14.90;99.90;;;;;;6139321;23;20068;-80
2022/07/23 00:06:47;;;;;;;10.10;3.42;;;15.00;99.90;;;;;;6163064;23;20010;-80
2022/07/23 00:09:13;;;;;;;7.68;3.47;;;14.90;99.90;;;;;;6114802;23;20012;-81
2022/07/23 00:11:39;;;;;;;6.10;3.38;;;14.90;99.90;;;;;;6139006;23;20212;-81
2022/07/23 00:14:04;;;;;;;5.50;3.40;;;14.90;99.90;;;;;;6115267;23;20009;-83
2022/07/23 00:16:30;;;;;;;6.05;2.38;;;14.90;99.90;;;;;;6114712;23;20045;-80
2022/07/23 00:18:56;;;;;;;3.63;2.38;;;14.80;99.90;;;;;;6139124;23;20013;-81
2022/07/23 00:22:09;;;;;;;6.47;3.78;;;14.40;99.90;;;;;;6090441;23;20080;-82
2022/07/23 00:24:59;;;;;;;5.20;2.90;;;14.60;99.90;;;;;;6098920;23;20299;-80
2022/07/23 00:28:58;;;;;;;;;;;;;;;;;;;;;
2022/07/23 00:31:46;;;;;;;3.35;2.40;;;14.50;99.90;;;;;;6023954;23;20031;-82
2022/07/23 00:34:14;;;;;;;2.80;2.50;;;14.40;99.90;;;;;;6082574;23;20075;-82
2022/07/23 00:37:17;;;;;;;7.20;2.75;;;14.50;99.90;;;;;;6189089;23;20095;-81
2022/07/23 00:39:49;;;;;;;4.75;2.50;;;14.40;99.90;;;;;;6167297;23;20392;-81
2022/07/23 00:42:20;;;;;;;4.30;2.50;;;14.10;99.90;;;;;;6167884;23;20055;-81
2022/07/23 00:44:48;;;;;;;6.55;2.53;;;14.70;99.90;;;;;;6167842;23;20103;-80
2022/07/23 00:47:39;;;;;;;5.38;2.88;;;14.20;99.90;;;;;;6167551;23;20023;-78
2022/07/23 00:50:06;;;;;;;4.60;2.70;;;13.80;99.90;;;;;;6140306;23;20016;-77
2022/07/23 00:52:34;;;;;;;32.67;3.90;;;14.30;99.90;;;;;;6166918;23;20010;-80
2022/07/23 00:55:04;;;;;;;4.10;2.60;;;14.20;99.90;;;;;;6143826;23;20013;-80
2022/07/23 00:57:33;;;;;;;4.40;2.55;;;14.20;99.90;;;;;;6168937;23;20019;-79
2022/07/23 00:59:59;;;;;;;5.55;2.88;;;14.20;99.90;;;;;;6142691;23;20067;-78
2022/07/23 01:02:26;;;;;;;4.10;2.88;;;14.20;99.90;;;;;;6168339;23;20020;-81
2022/07/23 01:04:52;;;;;;;4.40;2.50;;;14.20;99.90;;;;;;6167836;23;20021;-78
2022/07/23 01:07:18;;;;;;;4.60;2.83;;;14.20;99.90;;;;;;6169113;23;20295;-81
2022/07/23 01:09:45;;;;;;;7.32;3.38;;;14.20;99.90;;;;;;6168414;23;20011;-79
2022/07/23 01:12:22;;;;;;;4.35;2.83;;;14.20;99.90;;;;;;6143366;23;20009;-80
2022/07/23 01:15:04;;;;;;;5.55;3.10;;;13.80;99.90;;;;;;6192433;23;20149;-79
2022/07/23 01:17:30;;;;;;;4.95;2.80;;;14.30;99.90;;;;;;6168520;23;20020;-81
2022/07/23 01:19:59;;;;;;;3.60;2.45;;;14.30;99.90;;;;;;6167057;23;20013;-78
2022/07/23 01:22:29;;;;;;;3.72;3.00;;;13.30;99.90;;;;;;6166794;23;20088;-80
2022/07/23 01:24:55;;;;;;;5.20;2.80;;;14.20;99.90;;;;;;6165831;23;20072;-79
2022/07/23 01:27:20;;;;;;;3.35;2.78;;;14.30;99.90;;;;;;6141865;23;20013;-80
2022/07/23 01:29:46;;;;;;;4.03;2.90;;;14.20;99.90;;;;;;6140570;23;20032;-81
2022/07/23 01:32:12;;;;;;;4.70;3.08;;;14.20;99.90;;;;;;6166079;23;20025;-80
2022/07/23 01:34:44;;;;;;;4.90;3.35;;;14.20;99.90;;;;;;6165548;23;20040;-78
2022/07/23 01:37:16;;;;;;;5.10;3.50;;;14.10;99.90;;;;;;6165864;23;20012;-78
2022/07/23 01:39:47;;;;;;;4.38;3.95;;;14.30;99.90;;;;;;6163398;23;20013;-79
2022/07/23 01:42:16;;;;;;;7.25;3.47;;;14.00;99.90;;;;;;6162969;23;20040;-82
2022/07/23 01:44:41;;;;;;;8.70;4.05;;;14.30;99.90;;;;;;6165474;23;20068;-78
2022/07/23 01:47:09;;;;;;;5.63;3.60;;;14.40;99.90;;;;;;6167504;23;20175;-80
2022/07/23 01:49:35;;;;;;;6.45;3.40;;;14.30;99.90;;;;;;6141161;23;20016;-79
2022/07/23 01:52:01;;;;;;;4.07;3.60;;;14.40;99.90;;;;;;6166143;23;20016;-77
2022/07/23 01:54:32;;;;;;;5.40;3.70;;;14.40;99.90;;;;;;6141720;23;20087;-80
2022/07/23 01:56:59;;;;;;;4.75;3.63;;;14.30;99.90;;;;;;6217169;23;20063;-81
2022/07/23 01:59:26;;;;;;;5.88;4.03;;;14.30;99.90;;;;;;6192408;23;20086;-80
2022/07/23 02:01:55;;;;;;;8.82;4.68;;;14.40;99.90;;;;;;6166673;23;20024;-80
2022/07/23 02:04:22;;;;;;;8.23;5.95;;;14.30;99.90;;;;;;6118148;23;20016;-81
2022/07/23 02:06:48;;;;;;;9.18;5.88;;;14.30;99.90;;;;;;6141911;23;20020;-82
2022/07/23 02:12:52;;;;;;;10.48;5.97;;;13.90;99.90;;;;;;6017204;23;20019;-81
2022/07/23 02:15:17;;;;;;;5.38;4.57;;;14.30;99.90;;;;;;6012360;23;20081;-81
2022/07/23 02:17:43;;;;;;;8.45;5.20;;;14.80;99.90;;;;;;6051727;23;20018;-81
2022/07/23 02:20:10;;;;;;;4.43;4.03;;;14.40;99.90;;;;;;6068218;23;20016;-82
2022/07/23 02:22:37;;;;;;;5.90;4.70;;;14.40;99.90;;;;;;6140921;23;20009;-81
2022/07/23 02:25:04;;;;;;;6.88;4.22;;;14.30;99.90;;;;;;6165606;23;20013;-82
2022/07/23 02:27:54;;;;;;;7.22;4.25;;;13.30;99.90;;;;;;6166419;23;20052;-81
2022/07/23 02:30:26;;;;;;;5.78;4.57;;;14.10;99.90;;;;;;6166933;23;20076;-81
2022/07/23 02:32:51;;;;;;;5.10;4.07;;;14.40;99.90;;;;;;6142646;23;20017;-81
2022/07/23 02:35:17;;;;;;;6.38;4.15;;;14.30;99.90;;;;;;6119096;23;20013;-79
2022/07/23 02:38:27;;;;;;;6.53;4.22;;;14.40;99.90;;;;;;6166322;23;20068;-81
2022/07/23 02:44:52;;;;;;;9.23;4.90;;;14.50;99.90;;;;;;6191388;23;20048;-80
2022/07/23 02:47:31;;;;;;;6.07;4.47;;;14.40;99.90;;;;;;6139367;23;20008;-80
2022/07/23 02:50:38;;;;;;;8.13;4.85;;;14.30;99.90;;;;;;6144902;23;20211;-80
2022/07/23 02:53:23;;;;;;;9.35;5.40;;;14.10;99.90;;;;;;6183668;23;20067;-78
2022/07/23 02:55:49;;;;;;;8.65;6.10;;;14.30;99.90;;;;;;6119796;23;20015;-81
2022/07/23 02:58:14;;;;;;;8.63;6.68;;;14.40;99.90;;;;;;6169353;23;20013;-82
2022/07/23 03:00:40;;;;;;;10.57;6.03;;;14.40;99.90;;;;;;6219010;23;20072;-81
2022/07/23 03:03:07;;;;;;;7.07;4.93;;;14.40;99.90;;;;;;6145133;23;20020;-81
2022/07/23 03:06:03;;;;;;;8.07;5.50;;;14.40;99.90;;;;;;6168982;23;20013;-81
2022/07/23 03:08:29;;;;;;;5.75;4.63;;;14.50;99.90;;;;;;6132413;23;20298;-79
2022/07/23 03:10:58;;;;;;;6.93;5.18;;;14.50;99.90;;;;;;6119839;23;20073;-78
2022/07/23 03:13:24;;;;;;;5.63;5.03;;;14.50;99.90;;;;;;6168685;23;20009;-80
2022/07/23 03:19:44;;;;;;;8.23;6.10;;;14.20;99.90;;;;;;6065499;23;20025;-78
2022/07/23 03:22:10;;;;;;;9.15;6.75;;;14.50;99.90;;;;;;6079324;23;20255;-80
2022/07/23 03:24:54;;;;;;;9.82;5.50;;;14.40;99.90;;;;;;6131707;23;20020;-79
2022/07/23 03:27:21;;;;;;;10.05;6.32;;;14.40;99.90;;;;;;6167576;23;20027;-81
2022/07/23 03:29:46;;;;;;;10.77;5.72;;;14.50;99.90;;;;;;6142399;23;20028;-78
2022/07/23 03:32:12;;;;;;;9.40;6.00;;;14.40;99.90;;;;;;6167853;23;20017;-79
2022/07/23 03:34:38;;;;;;;8.73;5.80;;;14.50;99.90;;;;;;6217479;23;20013;-80
2022/07/23 03:37:04;;;;;;;7.13;5.10;;;14.40;99.90;;;;;;6142554;23;20017;-79
2022/07/23 03:39:29;;;;;;;8.80;5.43;;;14.50;99.90;;;;;;6166923;23;20030;-80
2022/07/23 03:42:06;;;;;;;7.38;4.82;;;14.50;99.90;;;;;;6167371;23;20007;-78
2022/07/23 03:44:32;;;;;;;6.63;4.63;;;14.50;99.90;;;;;;6143137;23;20024;-78
2022/07/23 03:46:58;;;;;;;7.90;5.00;;;14.50;99.90;;;;;;6192347;23;20005;-79
2022/07/23 03:49:23;;;;;;;11.50;4.40;;;14.60;99.90;;;;;;6167049;23;20064;-80
2022/07/23 03:51:50;;;;;;;13.20;5.65;;;14.50;99.90;;;;;;6144035;23;20117;-80
2022/07/23 03:54:18;;;;;;;7.05;5.72;;;14.60;99.90;;;;;;6142834;23;20012;-79
2022/07/23 03:56:44;;;;;;;6.72;4.90;;;14.40;99.90;;;;;;6166881;23;20067;-80
2022/07/23 03:59:10;;;;;;;8.40;5.35;;;14.60;99.90;;;;;;6143292;23;20071;-79
2022/07/23 04:01:36;;;;;;;8.70;6.07;;;14.70;99.90;;;;;;6168644;23;20020;-80
2022/07/23 04:04:02;;;;;;;10.07;5.63;;;14.60;99.90;;;;;;6167522;23;20028;-78
2022/07/23 04:06:28;;;;;;;10.63;6.00;;;14.60;99.90;;;;;;6119376;23;20091;-79
2022/07/23 04:08:54;;;;;;;6.90;4.80;;;14.70;99.90;;;;;;6143679;23;20238;-79
2022/07/23 04:11:20;;;;;;;7.20;4.80;;;14.60;99.90;;;;;;6193307;23;20409;-79
2022/07/23 04:18:00;;;;;;;10.50;5.20;;;14.70;99.90;;;;;;6115004;23;20180;-80
2022/07/23 04:20:43;;;;;;;6.55;4.32;;;14.70;99.90;;;;;;6122668;23;20012;-78
2022/07/23 04:23:14;;;;;;;7.65;4.95;;;14.70;99.90;;;;;;6119765;23;20020;-79
2022/07/23 04:25:43;;;;;;;10.80;5.10;;;14.70;99.90;;;;;;6167724;23;20095;-81
2022/07/23 04:28:10;;;;;;;7.18;4.40;;;14.80;99.90;;;;;;6187836;23;20016;-78
2022/07/23 04:30:38;;;;;;;9.85;4.05;;;14.90;99.90;;;;;;6168628;23;20032;-79
2022/07/23 04:34:04;;;;;;;7.13;4.20;;;14.60;99.90;;;;;;6167276;23;20031;-80
2022/07/23 04:59:04;;;;;;;6.55;2.67;;;15.10;99.90;;;;;;5832853;24;20027;-80
2022/07/23 05:05:04;;;;;;;5.00;2.60;;;15.40;99.90;;;;;;6048223;23;20334;-79
2022/07/23 05:07:56;;;;;;;3.78;2.70;;;15.40;99.90;;;;;;6026763;23;20018;-79
2022/07/23 05:14:35;;;;;;;4.32;2.58;;;15.10;99.90;;;;;;6193004;23;20003;-79
2022/07/23 05:17:27;;;;;;;4.03;2.53;;;16.00;99.90;;;;;;6166456;23;20195;-79
2022/07/23 05:20:25;;;;;;;4.68;2.13;;;15.50;99.90;;;;;;6141871;23;20008;-78
2022/07/23 05:23:38;;;;;;;2.72;2.20;;;15.60;99.90;;;;;;6167263;23;20017;-80
2022/07/23 05:27:05;;;;;;;3.50;2.50;;;15.60;99.90;;;;;;6164987;23;20017;-80
2022/07/23 05:30:32;;;;;;;3.95;2.30;;;15.60;99.90;;;;;;6167523;23;20013;-81
2022/07/23 05:33:27;;;;;;;2.38;2.17;;;15.70;99.90;;;;;;6072857;23;20546;-81
2022/07/23 05:36:13;;;;;;;4.88;2.40;;;15.70;99.90;;;;;;6028598;23;20051;-81
2022/07/23 05:38:58;;;;;;;2.85;2.20;;;15.70;99.90;;;;;;6050360;23;20298;-80
2022/07/23 05:41:47;;;;;;;3.42;2.28;;;15.60;99.90;;;;;;6094121;23;20013;-80
2022/07/23 05:44:17;;;;;;;2.75;2.45;;;15.60;99.90;;;;;;6098940;23;20010;-80
2022/07/23 05:46:52;;;;;;;5.75;2.80;;;15.40;99.90;;;;;;6112072;23;20120;-80
2022/07/23 05:49:30;;;;;;;8.40;2.65;;;15.80;99.90;;;;;;6137294;23;20060;-80
2022/07/23 05:51:56;;;;;;;2.95;2.33;;;15.80;99.90;;;;;;6138280;23;20017;-80
2022/07/23 05:54:24;;;;;;;3.55;2.13;;;15.90;99.90;;;;;;6137940;23;20020;-79
2022/07/23 05:56:52;;;;;;;5.43;2.47;;;15.60;99.90;;;;;;6112305;23;20068;-79
2022/07/23 05:59:20;;;;;;;4.80;2.60;;;16.10;99.90;;;;;;6138136;23;20013;-80
2022/07/23 06:01:46;;;;;;;5.07;2.72;;;16.20;99.90;;;;;;6138001;23;20020;-80
2022/07/23 06:04:21;;;;;;;5.82;2.55;;;16.10;99.90;;;;;;6137995;23;20017;-81
2022/07/23 06:06:49;;;;;;;3.42;2.60;;;16.10;99.90;;;;;;6137681;23;20017;-81
2022/07/23 06:09:38;;;;;;;4.65;2.90;;;16.10;99.90;;;;;;6089209;23;20021;-80
2022/07/23 06:12:24;;;;;;;2.83;2.38;;;16.30;99.90;;;;;;6085659;23;20054;-80
2022/07/23 06:15:04;;;;;;;4.93;2.72;;;16.40;99.90;;;;;;6113407;23;20333;-81
2022/07/23 06:17:38;;;;;;;4.95;3.08;;;16.30;99.90;;;;;;6137763;23;20013;-81
2022/07/23 06:20:08;;;;;;;3.75;2.60;;;16.40;99.90;;;;;;6066509;23;20240;-82
2022/07/23 06:27:12;;;;;;;3.65;2.28;;;16.40;99.90;;;;;;5960930;23;20024;-85
2022/07/23 06:29:37;;;;;;;3.50;2.20;;;16.30;99.90;;;;;;5995150;23;20017;-84
2022/07/23 06:32:06;;;;;;;3.15;2.10;;;16.60;99.90;;;;;;6087857;23;20026;-84
2022/07/23 06:38:22;;;;;;;3.30;1.60;;;16.40;99.90;;;;;;6011391;23;20019;-77
2022/07/23 06:44:23;;;;;;;1.83;1.58;;;16.10;99.90;;;;;;5983857;23;20578;-79
2022/07/23 06:47:18;;;;;;;2.33;1.60;;;16.30;99.90;;;;;;6021034;23;20011;-80
2022/07/23 06:57:25;;;;;;;3.88;1.60;;;16.60;99.90;;;;;;6115027;23;20014;-80
2022/07/23 07:00:34;;;;;;;2.40;1.35;;;16.60;99.90;;;;;;6114665;23;20303;-81
2022/07/23 07:03:34;;;;;;;;;;;;;;;;;;;;;
2022/07/23 07:07:15;;;;;;;2.15;0.90;;;17.00;99.90;;;;;;6102959;23;20049;-83
2022/07/23 07:10:26;;;;;;;;;;;;;;;;;;;;;
2022/07/23 07:13:00;;;;;;;2.00;0.90;;;17.20;99.90;;;;;;5938018;24;20244;-83
2022/07/23 07:18:30;;;;;;;3.35;1.02;;;17.50;99.90;;;;;;6102994;23;20312;-83
2022/07/23 07:21:33;;;;;;;1.42;0.90;;;17.60;99.90;;;;;;6030992;23;20500;-83
2022/07/23 07:24:00;;;;;;;1.83;0.77;;;17.40;99.90;;;;;;6054171;23;20379;-84
2022/07/23 07:27:20;;;;;;;;;;;;;;;;;;;;;
2022/07/23 07:30:37;;;;;;;2.05;0.88;;;17.70;99.90;;;;;;6046591;23;20018;-84
2022/07/23 07:33:22;;;;;;;;;;;;;;;;;;;;;
2022/07/23 07:36:32;;;;;;;1.25;0.70;;;18.00;99.90;;;;;;6139229;23;20013;-80
2022/07/23 07:39:10;;;;;;;1.08;0.85;;;18.20;99.90;;;;;;6108793;23;20048;-79
2022/07/23 07:42:32;;;;;;;1.23;0.80;;;18.10;99.90;;;;;;6090655;23;20232;-82
2022/07/23 07:44:31;;;;;;;1.42;1.00;;;18.30;99.90;;;;;;6131627;23;20072;-83
2022/07/23 07:46:56;;;;;;;2.53;1.08;;;18.30;99.90;;;;;;6067238;23;20169;-82
2022/07/23 07:49:43;;;;;;;0.98;0.85;;;18.40;99.90;;;;;;6089332;23;20024;-81
2022/07/23 07:52:09;;;;;;;1.40;0.70;;;18.20;99.90;;;;;;6138303;23;20013;-80
2022/07/23 07:54:35;;;;;;;1.42;0.65;;;18.20;99.90;;;;;;6114428;23;20028;-79
2022/07/23 07:57:04;;;;;;;0.88;0.70;;;18.20;99.90;;;;;;6114467;23;20188;-82
2022/07/23 07:59:38;;;;;;;1.85;0.70;;;18.50;99.90;;;;;;6113504;23;20303;-80
2022/07/23 08:02:41;;;;;;;3.90;0.80;;;18.60;99.90;;;;;;6088758;23;20021;-81
2022/07/23 08:05:11;;;;;;;1.13;0.80;;;18.30;99.90;;;;;;6092314;23;20283;-81
2022/07/23 08:07:57;;;;;;;1.10;0.68;;;18.10;99.90;;;;;;6137865;23;20314;-78
2022/07/23 08:10:28;;;;;;;0.73;0.65;;;17.90;99.90;;;;;;6112342;23;20009;-81
2022/07/23 08:13:58;;;;;;;0.95;0.70;;;17.90;99.90;;;;;;6162896;23;20009;-79
2022/07/23 08:16:55;;;;;;;1.70;0.80;;;17.90;99.90;;;;;;6136133;23;20035;-81
2022/07/23 08:19:54;;;;;;;1.52;0.70;;;17.70;99.90;;;;;;6102826;23;20039;-81
2022/07/23 08:27:06;;;;;;;0.98;0.80;;;17.80;99.90;;;;;;6042887;23;20027;-84
2022/07/23 08:29:39;;;;;;;1.08;0.90;;;18.00;99.90;;;;;;5996445;23;20118;-81
2022/07/23 08:32:05;;;;;;;1.45;0.88;;;18.60;99.90;;;;;;6021094;23;20025;-83
2022/07/23 08:34:34;;;;;;;1.77;0.90;;;18.90;99.90;;;;;;6049783;23;20014;-81
2022/07/23 08:41:11;;;;;;;0.93;0.70;;;19.20;99.90;;;;;;6036325;23;20026;-83
2022/07/23 08:43:40;;;;;;;2.63;0.73;;;18.90;99.90;;;;;;6047165;23;20021;-83
2022/07/23 08:46:08;;;;;;;1.52;0.68;;;18.90;99.90;;;;;;6048708;23;20014;-81
2022/07/23 08:48:43;;;;;;;1.80;0.68;;;19.40;99.90;;;;;;6114212;23;20009;-81
2022/07/23 08:55:09;;;;;;;1.00;0.60;;;18.90;99.90;;;;;;6160540;23;20016;-81
2022/07/23 08:58:03;;;;;;;1.08;0.57;;;19.20;99.90;;;;;;6018736;23;20016;-82
2022/07/23 09:00:47;;;;;;;1.92;0.82;;;19.50;99.90;;;;;;5998347;23;20023;-82
2022/07/23 09:11:23;;;;;;;;;;;;;;;;;;;;;
2022/07/23 09:14:48;;;;;;;;;;;;;;;;;;;;;
2022/07/23 09:21:38;;;;;;;2.20;0.95;;;19.80;99.90;;;;;;6004006;23;20019;-79
2022/07/23 09:25:14;;;;;;;;;;;;;;;;;;;;;
2022/07/23 09:28:13;;;;;;;1.00;0.90;;;20.80;99.90;;;;;;6117555;23;20036;-67
2022/07/23 09:31:09;;;;;;;1.58;0.70;;;20.80;99.90;;;;;;6073703;23;20037;-83
2022/07/23 09:33:40;;;;;;;2.92;0.90;;;19.90;99.90;;;;;;6132677;23;20214;-79
2022/07/23 09:36:16;;;;;;;1.52;0.90;;;20.00;99.90;;;;;;6110966;23;20044;-81
2022/07/23 09:39:14;;;;;;;1.70;0.77;;;19.90;99.90;;;;;;6160559;23;20009;-79
2022/07/23 09:42:11;;;;;;;1.75;0.90;;;19.70;99.90;;;;;;6115174;23;20655;-77
2022/07/23 09:45:39;;;;;;;2.55;0.80;;;20.00;99.90;;;;;;6098520;23;20330;-76
2022/07/23 09:52:27;;;;;;;1.80;0.80;;;19.70;99.90;;;;;;6071940;23;20332;-79
2022/07/23 09:55:51;;;;;;;2.97;0.90;;;20.00;99.90;;;;;;6109567;23;20021;-78
2022/07/23 09:58:44;;;;;;;;;;;;;;;;;;;;;
2022/07/23 10:01:45;;;;;;;;;;;;;;;;;;;;;
2022/07/23 10:05:07;;;;;;;2.70;0.90;;;20.40;99.90;;;;;;6139144;23;20020;-82
2022/07/23 10:07:43;;;;;;;1.88;0.80;;;20.60;99.90;;;;;;6153992;23;20064;-81
2022/07/23 10:10:23;;;;;;;2.90;0.93;;;20.80;99.90;;;;;;6112911;23;20191;-81
2022/07/23 10:16:04;;;;;;;1.85;0.80;;;20.40;99.90;;;;;;6019659;23;20026;-82
2022/07/23 10:18:46;;;;;;;2.13;0.90;;;20.40;99.90;;;;;;6137465;23;20020;-79
2022/07/23 10:21:27;;;;;;;0.98;0.70;;;20.60;99.90;;;;;;6112734;23;20311;-83
2022/07/23 10:24:50;;;;;;;;;;;;;;;;;;;;;
2022/07/23 10:31:24;;;;;;;2.95;0.90;;;20.60;99.90;;;;;;6114716;23;20069;-81
2022/07/23 10:33:59;;;;;;;4.38;0.95;;;20.40;99.90;;;;;;6137859;23;20026;-81
2022/07/23 10:37:24;;;;;;;2.10;0.90;;;20.60;99.90;;;;;;6137438;23;20037;-80
2022/07/23 10:40:26;;;;;;;0.77;0.73;;;20.60;99.90;;;;;;6134908;23;20044;-82
2022/07/23 10:43:16;;;;;;;1.27;0.95;;;20.00;99.90;;;;;;6140430;23;20009;-81
2022/07/23 10:45:42;;;;;;;1.20;1.10;;;19.80;99.90;;;;;;6112857;23;20014;-82
2022/07/23 10:48:19;;;;;;;1.70;0.85;;;20.30;99.90;;;;;;6137306;23;20035;-82
2022/07/23 10:51:13;;;;;;;1.75;1.05;;;20.50;99.90;;;;;;6133895;23;20018;-76
2022/07/23 10:53:51;;;;;;;2.33;1.10;;;20.00;99.90;;;;;;6134538;23;20009;-79
2022/07/23 10:57:04;;;;;;;2.38;1.10;;;20.50;99.90;;;;;;6134716;23;20040;-79
2022/07/23 11:00:14;;;;;;;1.95;1.50;;;20.10;99.90;;;;;;6082804;23;20013;-80
2022/07/23 11:02:45;;;;;;;1.10;0.90;;;20.00;99.90;;;;;;6135890;23;20350;-78
2022/07/23 11:05:14;;;;;;;2.03;0.90;;;20.30;99.90;;;;;;6087906;23;20018;-79
2022/07/23 11:08:05;;;;;;;2.22;1.00;;;20.80;99.90;;;;;;6112706;23;20173;-80
2022/07/23 11:10:49;;;;;;;1.67;1.00;;;20.70;99.90;;;;;;6138076;23;20203;-78
2022/07/23 11:18:00;;;;;;;2.38;0.90;;;21.30;99.90;;;;;;6113582;23;20017;-82
2022/07/23 11:20:49;;;;;;;2.13;1.13;;;21.10;99.90;;;;;;6048957;23;20013;-83
2022/07/23 11:24:08;;;;;;;2.08;1.20;;;21.00;99.90;;;;;;6089941;23;20294;-83
2022/07/23 11:26:57;;;;;;;1.55;1.00;;;21.30;99.90;;;;;;6143410;23;20017;-83
2022/07/23 11:29:30;;;;;;;2.30;1.10;;;21.10;99.90;;;;;;6113034;23;20044;-81
2022/07/23 11:31:59;;;;;;;2.50;1.20;;;20.80;99.90;;;;;;6129570;23;20048;-81
2022/07/23 11:34:47;;;;;;;2.13;1.00;;;20.90;99.90;;;;;;6168419;23;20075;-81
2022/07/23 11:37:38;;;;;;;3.88;1.30;;;21.00;99.90;;;;;;6169276;23;20013;-80
2022/07/23 11:40:16;;;;;;;2.10;1.05;;;20.80;99.90;;;;;;6168632;23;20011;-79
2022/07/23 11:43:20;;;;;;;1.17;1.00;;;20.70;99.90;;;;;;6144119;23;20299;-82
2022/07/23 11:46:07;;;;;;;;;;;;;;;;;;;;;
2022/07/23 11:48:39;;;;;;;3.53;1.20;;;20.50;99.90;;;;;;6168226;23;20013;-81
2022/07/23 11:51:04;;;;;;;2.45;1.20;;;20.40;99.90;;;;;;6142010;23;20322;-80
2022/07/23 11:53:42;;;;;;;2.40;1.20;;;20.70;99.90;;;;;;6168582;23;20013;-80
2022/07/23 11:56:10;;;;;;;1.85;1.30;;;20.70;99.90;;;;;;6144069;23;20010;-82
2022/07/23 11:58:37;;;;;;;5.15;1.40;;;20.60;99.90;;;;;;6144573;23;20064;-82
2022/07/23 12:01:04;;;;;;;1.77;1.13;;;20.50;99.90;;;;;;6143245;23;20009;-81
2022/07/23 12:03:53;;;;;;;2.15;1.10;;;20.50;99.90;;;;;;6141850;23;20024;-82
2022/07/23 12:06:27;;;;;;;2.10;1.35;;;20.70;99.90;;;;;;6142063;23;20306;-80
2022/07/23 12:09:40;;;;;;;1.52;1.25;;;20.70;99.90;;;;;;6143015;23;20009;-82
2022/07/23 12:12:07;;;;;;;1.42;1.08;;;20.60;99.90;;;;;;6129278;23;20017;-83
2022/07/23 12:14:33;;;;;;;2.03;1.30;;;20.60;99.90;;;;;;6166196;23;20021;-81
2022/07/23 12:17:11;;;;;;;4.47;1.70;;;20.60;99.90;;;;;;6166650;23;20020;-82
2022/07/23 12:19:37;;;;;;;1.77;1.40;;;21.20;99.90;;;;;;6167251;23;20017;-81
2022/07/23 12:22:04;;;;;;;2.65;1.30;;;21.40;99.90;;;;;;6166449;23;20024;-81
2022/07/23 12:25:04;;;;;;;1.48;1.20;;;21.30;99.90;;;;;;6141949;23;20071;-81
2022/07/23 12:27:50;;;;;;;2.83;1.10;;;22.10;99.90;;;;;;6156853;23;20051;-82
2022/07/23 12:30:27;;;;;;;1.45;1.10;;;22.10;99.90;;;;;;6166626;23;20504;-82
2022/07/23 12:36:53;;;;;;;2.83;1.48;;;21.80;99.90;;;;;;6121715;23;20020;-80
2022/07/23 12:40:34;;;;;;;2.65;1.20;;;21.80;99.90;;;;;;6135527;23;20017;-80
2022/07/23 12:43:04;;;;;;;2.25;1.10;;;22.00;99.90;;;;;;6082502;23;20021;-80
2022/07/23 12:45:52;;;;;;;2.15;1.10;;;22.10;99.90;;;;;;6112409;23;20020;-82
2022/07/23 12:48:30;;;;;;;1.58;1.05;;;21.60;99.90;;;;;;6112755;23;20017;-80
2022/07/23 12:51:00;;;;;;;2.60;1.38;;;21.70;99.90;;;;;;6137023;23;20009;-81
2022/07/23 12:53:39;;;;;;;2.65;1.27;;;21.30;99.90;;;;;;6111513;23;20076;-81
2022/07/23 12:56:11;;;;;;;2.67;1.10;;;21.80;99.90;;;;;;6112226;23;20047;-81
2022/07/23 12:59:21;;;;;;;2.97;1.25;;;22.10;99.90;;;;;;6138443;23;20041;-78
2022/07/23 13:02:00;;;;;;;1.88;1.10;;;22.40;99.90;;;;;;6135761;23;20256;-81
2022/07/23 13:04:26;;;;;;;1.75;1.10;;;22.00;99.90;;;;;;6112926;23;20052;-81
2022/07/23 13:10:30;;;;;;;2.85;1.30;;;21.20;99.90;;;;;;6079293;23;20023;-81
2022/07/23 13:12:58;;;;;;;2.75;1.20;;;21.60;99.90;;;;;;6088912;23;20073;-80
2022/07/23 13:15:27;;;;;;;3.65;1.15;;;22.00;99.90;;;;;;6090127;23;20014;-80
2022/07/23 13:17:53;;;;;;;1.50;1.02;;;21.80;99.90;;;;;;6115145;23;20203;-81
2022/07/23 13:20:19;;;;;;;2.20;1.20;;;21.90;99.90;;;;;;6114436;23;20020;-81
2022/07/23 13:22:47;;;;;;;6.20;1.65;;;21.80;99.90;;;;;;6113661;23;20013;-80
2022/07/23 13:25:13;;;;;;;2.00;1.20;;;21.60;99.90;;;;;;6138228;23;20199;-81
2022/07/23 13:27:39;;;;;;;3.50;1.13;;;22.30;99.90;;;;;;6090485;23;20010;-83
2022/07/23 13:30:14;;;;;;;2.58;1.23;;;22.40;99.90;;;;;;6114137;23;20029;-82
2022/07/23 13:32:40;;;;;;;1.58;1.08;;;22.50;99.90;;;;;;6137915;23;20036;-82
2022/07/23 13:35:19;;;;;;;;;;;;;;;;;;;;;
2022/07/23 13:38:02;;;;;;;2.75;1.10;;;23.40;99.90;;;;;;6138248;23;20016;-81
2022/07/23 13:44:35;;;;;;;1.80;1.10;;;23.30;99.90;;;;;;6098571;23;20286;-82
2022/07/23 13:47:04;;;;;;;3.75;1.50;;;23.10;99.90;;;;;;6138348;23;20064;-82
2022/07/23 13:49:39;;;;;;;1.80;1.00;;;23.40;99.90;;;;;;6138717;23;20010;-82
2022/07/23 13:52:26;;;;;;;3.05;1.27;;;23.80;99.90;;;;;;6137649;23;20024;-82
2022/07/23 13:55:28;;;;;;;1.40;1.02;;;23.80;99.90;;;;;;6095881;23;20037;-79
2022/07/23 13:58:07;;;;;;;1.15;1.05;;;23.30;99.90;;;;;;6124114;23;20021;-82
2022/07/23 14:01:19;;;;;;;2.33;1.45;;;22.50;99.90;;;;;;6151263;23;20009;-79
2022/07/23 14:04:40;;;;;;;1.40;1.30;;;23.30;99.90;;;;;;6107554;23;20010;-83
2022/07/23 14:10:11;;;;;;;2.65;1.63;;;23.90;99.90;;;;;;6139032;23;20033;-81
2022/07/23 14:13:06;;;;;;;1.60;1.30;;;24.20;99.90;;;;;;6148044;23;20010;-81
2022/07/23 14:16:22;;;;;;;3.15;1.45;;;24.20;99.90;;;;;;6121154;23;20013;-83
2022/07/23 14:18:51;;;;;;;3.05;1.40;;;23.80;99.90;;;;;;6123220;23;20023;-82
2022/07/23 14:21:17;;;;;;;3.58;1.40;;;23.40;99.90;;;;;;6142294;23;20014;-83
2022/07/23 14:23:42;;;;;;;1.83;1.52;;;22.80;99.90;;;;;;6138640;23;20009;-82
2022/07/23 14:26:11;;;;;;;1.45;1.30;;;22.40;99.90;;;;;;6114287;23;20013;-82
2022/07/23 14:28:37;;;;;;;1.58;1.20;;;22.80;99.90;;;;;;6138711;23;20006;-81
2022/07/23 14:31:03;;;;;;;1.20;1.10;;;22.90;99.90;;;;;;6138436;23;20060;-82
2022/07/23 14:33:28;;;;;;;1.60;1.20;;;22.60;99.90;;;;;;6141037;23;20017;-80
2022/07/23 14:35:58;;;;;;;3.95;1.40;;;22.20;99.90;;;;;;6166887;23;20032;-80
2022/07/23 14:38:30;;;;;;;1.52;1.40;;;22.60;99.90;;;;;;6119851;23;20013;-82
2022/07/23 14:40:57;;;;;;;1.35;1.17;;;22.30;99.90;;;;;;6150980;23;20243;-80
2022/07/23 14:43:58;;;;;;;1.75;1.20;;;21.90;99.90;;;;;;6143380;23;20184;-80
2022/07/23 14:57:17;;;;;;;2.20;1.70;;;21.60;99.90;;;;;;5963406;23;20275;-80
2022/07/23 15:00:54;;;;;;;;;;;;;;;;;;;;;
2022/07/23 15:03:49;;;;;;;3.58;1.33;;;21.90;99.90;;;;;;5965721;23;20012;-79
2022/07/23 15:06:18;;;;;;;1.88;1.38;;;21.90;99.90;;;;;;5990916;23;20028;-81
2022/07/23 15:08:52;;;;;;;3.58;1.30;;;21.70;99.90;;;;;;6097290;23;20020;-83
2022/07/23 15:11:52;;;;;;;;;;;;;;;;;;;;;
2022/07/23 15:22:47;;;;;;;;;;;;;;;;;;;;;
2022/07/23 15:33:53;;;;;;;2.38;1.23;;;21.60;99.90;;;;;;5914549;24;20402;-82
2022/07/23 15:37:15;;;;;;;2.03;1.15;;;21.50;99.90;;;;;;5965195;24;20024;-81
2022/07/23 15:47:51;;;;;;;1.90;1.40;;;21.40;99.90;;;;;;5990920;23;20019;-81
2022/07/23 15:58:15;;;;;;;3.58;1.40;;;21.30;99.90;;;;;;6103210;23;20305;-81
2022/07/23 16:08:38;;;;;;;4.10;1.58;;;21.30;99.90;;;;;;5989188;24;20011;-82
2022/07/23 16:15:20;;;;;;;1.80;1.40;;;21.00;99.90;;;;;;5933358;24;20024;-83
2022/07/23 16:18:10;;;;;;;2.83;1.48;;;21.10;99.90;;;;;;5861931;24;20021;-82
2022/07/23 16:24:32;;;;;;;4.05;1.20;;;21.00;99.90;;;;;;5909522;24;20021;-83
2022/07/23 16:33:59;;;;;;;1.45;1.20;;;20.90;99.90;;;;;;5937512;24;20084;-81
2022/07/23 16:36:38;;;;;;;;;;;;;;;;;;;;;
2022/07/23 16:39:32;;;;;;;3.78;1.63;;;20.60;99.90;;;;;;5981071;24;20023;-82
2022/07/23 16:42:01;;;;;;;2.58;1.25;;;20.80;99.90;;;;;;5987347;24;20012;-81
2022/07/23 16:44:41;;;;;;;2.85;1.35;;;20.50;99.90;;;;;;5943726;24;20184;-85
2022/07/23 16:47:14;;;;;;;2.35;1.45;;;20.60;99.90;;;;;;6021575;23;20020;-82
2022/07/23 16:58:16;;;;;;;2.15;1.35;;;20.40;99.90;;;;;;5917805;24;20322;-80
2022/07/23 17:00:48;;;;;;;2.05;1.33;;;20.40;99.90;;;;;;6039628;23;20009;-82
2022/07/23 17:03:55;;;;;;;5.75;1.33;;;20.40;99.90;;;;;;6156043;23;20017;-82
2022/07/23 17:06:47;;;;;;;1.20;1.02;;;20.40;99.90;;;;;;6138318;23;20069;-80
2022/07/23 17:10:57;;;;;;;;;;;;;;;;;;;;;
2022/07/23 17:25:44;;;;;;;2.33;1.27;;;20.40;99.90;;;;;;6029766;23;20030;-83
2022/07/23 17:37:38;;;;;;;;;;;;;;;;;;;;;
2022/07/23 17:41:46;;;;;;;;;;;;;;;;;;;;;
2022/07/23 17:45:17;;;;;;;;;;;;;;;;;;;;;
2022/07/23 17:52:11;;;;;;;2.90;1.30;;;20.40;99.90;;;;;;5927577;24;20071;-82
2022/07/23 17:55:05;;;;;;;4.63;1.50;;;20.00;99.90;;;;;;5911179;24;20017;-82
2022/07/23 17:57:46;;;;;;;2.55;1.10;;;20.00;99.90;;;;;;5990646;23;20039;-83
2022/07/23 18:00:30;;;;;;;3.53;1.27;;;19.90;99.90;;;;;;6013851;23;20290;-81
2022/07/23 18:10:57;;;;;;;2.10;1.40;;;19.80;99.90;;;;;;5954582;24;20075;-81
2022/07/23 18:13:23;;;;;;;2.17;1.45;;;19.70;99.90;;;;;;5955760;23;20015;-82